Terminal Aerodrome Forecast
Issued by NWS

Home | Current Version | Previous Version | Graphics & Text | Print | Product List | Glossary On
Versions: 1 2 3 4 5 6 7 8 9 10 11 12
000
FTUS45 KGGW 170520
TAFOLF
TAF
KOLF 170520Z 1706/1806 08004KT P6SM FEW130
     FM171400 27005KT P6SM SCT170
     FM171800 32014KT P6SM SCT150
     FM180300 34005KT P6SM FEW110=

USA.gov is the U.S. government's official web portal to all federal, state and local government web resources and services.